createdAt,value
2019-04-25T00:01:48.189Z,4.85
2019-04-25T00:04:16.854Z,4.17
2019-04-25T00:06:45.631Z,4.75
2019-04-25T00:09:15.971Z,4.10
2019-04-25T00:11:46.548Z,4.95
2019-04-25T00:14:14.615Z,5.55
2019-04-25T00:16:45.206Z,4.55
2019-04-25T00:19:13.590Z,4.90
2019-04-25T00:21:52.853Z,5.08
2019-04-25T00:24:46.165Z,4.83
2019-04-25T00:27:15.218Z,4.35
2019-04-25T00:29:44.715Z,5.80
2019-04-25T00:32:13.162Z,4.72
2019-04-25T00:34:43.572Z,5.35
2019-04-25T00:37:13.726Z,4.45
2019-04-25T00:39:41.319Z,5.40
2019-04-25T00:42:12.104Z,5.35
2019-04-25T00:44:43.501Z,5.00
2019-04-25T00:47:11.747Z,5.60
2019-04-25T00:49:39.845Z,5.40
2019-04-25T00:52:07.786Z,5.00
2019-04-25T00:54:35.653Z,4.80
2019-04-25T00:57:03.518Z,5.58
2019-04-25T00:59:46.876Z,5.05
2019-04-25T01:02:24.470Z,5.17
2019-04-25T01:04:53.244Z,5.47
2019-04-25T01:07:22.469Z,5.08
2019-04-25T01:09:52.123Z,5.70
2019-04-25T01:12:21.580Z,5.05
2019-04-25T01:14:50.447Z,5.75
2019-04-25T01:17:19.087Z,5.72
2019-04-25T01:19:49.367Z,7.85
2019-04-25T01:22:17.572Z,5.90
2019-04-25T01:24:47.254Z,7.30
2019-04-25T01:27:15.188Z,7.10
2019-04-25T01:29:44.424Z,6.85
2019-04-25T01:32:15.839Z,7.65
2019-04-25T01:34:58.977Z,6.60
2019-04-25T01:37:34.795Z,6.53
2019-04-25T01:40:35.368Z,7.12
2019-04-25T01:43:23.297Z,6.35
2019-04-25T01:45:52.350Z,6.92
2019-04-25T01:48:23.372Z,6.70
2019-04-25T01:50:52.813Z,6.45
2019-04-25T01:53:21.302Z,6.17
2019-04-25T01:55:56.007Z,7.47
2019-04-25T01:58:20.418Z,6.80
2019-04-25T02:00:50.388Z,5.75
2019-04-25T02:03:19.585Z,6.45
2019-04-25T02:05:47.556Z,6.35
2019-04-25T02:08:15.672Z,6.50
2019-04-25T02:10:45.895Z,6.12
2019-04-25T02:13:16.501Z,6.05
2019-04-25T02:15:44.623Z,4.92
2019-04-25T02:18:13.754Z,5.92
2019-04-25T02:20:43.500Z,5.45
2019-04-25T02:23:11.480Z,4.80
2019-04-25T02:25:39.437Z,4.97
2019-04-25T02:28:07.357Z,5.90
2019-04-25T02:30:35.802Z,5.10
2019-04-25T02:33:08.882Z,5.22
2019-04-25T02:35:34.981Z,5.10
2019-04-25T02:38:08.522Z,4.85
2019-04-25T02:40:33.846Z,5.75
2019-04-25T02:43:07.997Z,5.03
2019-04-25T02:46:00.535Z,5.60
2019-04-25T02:48:48.063Z,5.22
2019-04-25T02:51:29.317Z,4.95
2019-04-25T02:53:57.893Z,4.62
2019-04-25T02:56:31.324Z,4.30
2019-04-25T02:58:56.617Z,4.97
2019-04-25T03:01:26.116Z,4.75
2019-04-25T03:03:54.665Z,4.53
2019-04-25T03:06:24.651Z,5.60
2019-04-25T03:08:54.250Z,5.58
2019-04-25T03:11:24.300Z,5.42
2019-04-25T03:13:54.369Z,5.47
2019-04-25T03:16:21.894Z,4.30
2019-04-25T03:19:09.366Z,5.50
2019-04-25T03:21:37.823Z,5.17
2019-04-25T03:24:10.380Z,5.20
2019-04-25T03:26:40.350Z,4.75
2019-04-25T03:29:06.200Z,4.97
2019-04-25T03:31:34.971Z,5.42
2019-04-25T03:34:07.933Z,5.12
2019-04-25T03:36:34.952Z,4.92
2019-04-25T03:39:05.090Z,4.53
2019-04-25T03:41:34.127Z,4.70
2019-04-25T03:44:04.533Z,4.87
2019-04-25T03:46:33.396Z,5.08
2019-04-25T03:49:02.596Z,5.12
2019-04-25T03:51:31.317Z,4.90
2019-04-25T03:54:00.269Z,5.03
2019-04-25T03:56:28.343Z,4.53
2019-04-25T03:58:56.238Z,5.05
2019-04-25T04:01:25.588Z,4.87
2019-04-25T04:03:53.867Z,6.50
2019-04-25T04:06:21.678Z,7.05
2019-04-25T04:08:49.506Z,5.55
2019-04-25T04:11:17.378Z,5.85
2019-04-25T04:13:45.580Z,4.95
2019-04-25T04:16:16.116Z,5.83
2019-04-25T04:18:45.513Z,5.60
2019-04-25T04:21:20.740Z,4.45
2019-04-25T04:24:01.635Z,4.95
2019-04-25T04:26:29.847Z,5.10
2019-04-25T04:29:00.670Z,4.47
2019-04-25T04:31:28.580Z,4.78
2019-04-25T04:33:56.466Z,4.95
2019-04-25T04:36:24.460Z,5.03
2019-04-25T04:38:54.126Z,5.00
2019-04-25T04:41:23.845Z,4.80
2019-04-25T04:43:54.175Z,4.65
2019-04-25T04:46:23.658Z,4.87
2019-04-25T04:48:54.041Z,5.15
2019-04-25T04:51:23.437Z,4.70
2019-04-25T04:53:51.309Z,6.92
2019-04-25T04:56:19.392Z,5.65
2019-04-25T04:58:47.220Z,5.58
2019-04-25T05:01:17.026Z,5.78
2019-04-25T05:03:51.738Z,6.25
2019-04-25T05:06:28.193Z,6.10
2019-04-25T05:09:00.158Z,4.90
2019-04-25T05:11:28.268Z,5.78
2019-04-25T05:13:56.160Z,4.45
2019-04-25T05:16:24.097Z,6.47
2019-04-25T05:18:55.084Z,8.20
2019-04-25T05:21:22.592Z,7.50
2019-04-25T05:23:50.687Z,6.58
2019-04-25T05:26:18.976Z,6.62
2019-04-25T05:28:47.806Z,6.05
2019-04-25T05:31:31.337Z,6.17
2019-04-25T05:33:59.319Z,6.72
2019-04-25T05:36:36.530Z,5.87
2019-04-25T05:39:08.417Z,4.33
2019-04-25T05:41:56.465Z,8.98
2019-04-25T05:44:26.377Z,4.85
2019-04-25T05:46:54.183Z,3.55
2019-04-25T05:49:24.323Z,3.47
2019-04-25T05:51:53.883Z,3.62
2019-04-25T05:54:23.093Z,2.50
2019-04-25T05:56:53.701Z,2.70
2019-04-25T05:59:21.930Z,2.67
2019-04-25T06:01:49.857Z,2.98
2019-04-25T06:04:18.017Z,3.27
2019-04-25T06:06:46.943Z,2.65
2019-04-25T06:09:25.008Z,2.60
2019-04-25T06:12:15.638Z,2.25
2019-04-25T06:14:43.573Z,2.58
2019-04-25T06:17:16.093Z,2.15
2019-04-25T06:19:50.185Z,2.83
2019-04-25T06:22:26.827Z,2.85
2019-04-25T06:25:12.315Z,3.00
2019-04-25T06:27:51.197Z,2.67
2019-04-25T06:30:24.885Z,3.20
2019-04-25T06:32:53.928Z,2.80
2019-04-25T06:35:24.464Z,3.12
2019-04-25T06:37:53.587Z,3.40
2019-04-25T06:40:23.902Z,2.80
2019-04-25T06:42:53.630Z,3.65
2019-04-25T06:45:50.165Z,3.35
2019-04-25T06:48:27.629Z,3.05
2019-04-25T06:50:55.796Z,3.40
2019-04-25T06:53:25.494Z,3.08
2019-04-25T06:55:54.019Z,3.60
2019-04-25T06:58:23.308Z,3.33
2019-04-25T07:00:58.761Z,3.70
2019-04-25T07:03:22.804Z,3.13
2019-04-25T07:05:51.535Z,2.63
2019-04-25T07:08:19.654Z,2.60
2019-04-25T07:10:47.621Z,2.63
2019-04-25T07:13:16.451Z,2.87
2019-04-25T07:15:44.480Z,3.20
2019-04-25T07:18:13.995Z,2.53
2019-04-25T07:20:43.189Z,2.83
2019-04-25T07:23:13.579Z,2.50
2019-04-25T07:25:46.757Z,3.07
2019-04-25T07:28:44.017Z,3.70
2019-04-25T07:31:30.805Z,3.33
2019-04-25T07:34:03.364Z,2.37
2019-04-25T07:36:31.311Z,2.07
2019-04-25T07:39:08.090Z,1.67
2019-04-25T07:41:31.517Z,1.80
2019-04-25T07:44:00.452Z,1.73
2019-04-25T07:46:28.565Z,1.70
2019-04-25T07:48:56.613Z,1.73
2019-04-25T07:51:24.590Z,1.10
2019-04-25T07:53:53.440Z,1.20
2019-04-25T07:56:27.793Z,2.83
2019-04-25T07:58:56.099Z,1.70
2019-04-25T08:01:24.237Z,3.50
2019-04-25T08:03:53.777Z,5.10
2019-04-25T08:06:24.137Z,1.00
2019-04-25T08:08:52.398Z,1.30
2019-04-25T08:11:20.309Z,1.20
2019-04-25T08:14:03.441Z,1.20
2019-04-25T08:16:34.165Z,1.20
2019-04-25T08:19:03.947Z,1.00
2019-04-25T08:21:34.410Z,1.37
2019-04-25T08:24:04.737Z,1.70
2019-04-25T08:26:34.970Z,1.57
2019-04-25T08:29:03.618Z,1.67
2019-04-25T08:31:34.596Z,1.27
2019-04-25T08:34:03.584Z,1.13
2019-04-25T08:36:36.361Z,1.10
2019-04-25T08:39:04.628Z,1.17
2019-04-25T08:41:34.791Z,1.17
2019-04-25T08:44:04.112Z,1.33
2019-04-25T08:46:33.870Z,1.53
2019-04-25T08:49:19.321Z,1.30
2019-04-25T08:51:47.554Z,1.33
2019-04-25T08:54:36.433Z,1.20
2019-04-25T08:57:08.874Z,4.13
2019-04-25T08:59:52.298Z,1.90
2019-04-25T09:02:37.788Z,1.27
2019-04-25T09:05:24.086Z,1.00
2019-04-25T09:07:54.383Z,1.40
2019-04-25T09:10:23.749Z,1.03
2019-04-25T09:12:53.602Z,1.07
2019-04-25T09:15:21.814Z,1.40
2019-04-25T09:17:49.696Z,4.17
2019-04-25T09:20:18.269Z,3.07
2019-04-25T09:22:47.443Z,1.23
2019-04-25T09:25:15.685Z,1.40
2019-04-25T09:27:45.390Z,1.50
2019-04-25T09:30:14.355Z,0.90
2019-04-25T09:32:44.423Z,1.00
2019-04-25T09:35:13.703Z,1.20
2019-04-25T09:37:44.808Z,1.17
2019-04-25T09:40:16.612Z,1.17
2019-04-25T09:42:46.307Z,1.90
2019-04-25T09:45:35.972Z,1.60
2019-04-25T09:48:15.365Z,1.20
2019-04-25T09:50:46.401Z,1.07
2019-04-25T09:53:23.584Z,1.87
2019-04-25T09:55:58.675Z,1.20
2019-04-25T09:58:34.582Z,1.13
2019-04-25T10:01:08.918Z,1.07
2019-04-25T10:03:37.385Z,2.13
2019-04-25T10:06:08.074Z,2.40
2019-04-25T10:08:38.673Z,1.00
2019-04-25T10:11:06.815Z,1.73
2019-04-25T10:13:34.915Z,4.93
2019-04-25T10:16:09.393Z,2.83
2019-04-25T10:18:39.959Z,1.40
2019-04-25T10:21:11.174Z,1.57
2019-04-25T10:23:46.420Z,1.30
2019-04-25T10:26:14.817Z,1.10
2019-04-25T10:28:45.341Z,4.43
2019-04-25T10:31:13.731Z,1.70
2019-04-25T10:33:45.277Z,1.40
2019-04-25T10:36:14.315Z,1.10
2019-04-25T10:38:44.416Z,1.47
2019-04-25T10:41:14.206Z,1.50
2019-04-25T10:43:42.339Z,0.90
2019-04-25T10:46:10.567Z,1.13
2019-04-25T10:48:40.012Z,1.10
2019-04-25T10:51:08.168Z,1.17
2019-04-25T10:53:36.142Z,1.57
2019-04-25T10:56:05.963Z,1.60
2019-04-25T10:58:36.577Z,1.13
2019-04-25T11:01:05.564Z,1.67
2019-04-25T11:03:40.765Z,1.80
2019-04-25T11:06:09.735Z,1.40
2019-04-25T11:08:38.005Z,1.40
2019-04-25T11:11:06.147Z,1.23
2019-04-25T11:13:35.470Z,2.60
2019-04-25T11:16:07.733Z,1.30
2019-04-25T11:18:45.439Z,1.10
2019-04-25T11:21:14.227Z,2.83
2019-04-25T11:23:47.647Z,1.80
2019-04-25T11:26:16.297Z,1.10
2019-04-25T11:28:45.276Z,1.93
2019-04-25T11:31:20.925Z,1.10
2019-04-25T11:33:49.942Z,1.73
2019-04-25T11:36:19.074Z,1.50
2019-04-25T11:39:39.696Z,0.90
2019-04-25T11:42:13.112Z,1.10
2019-04-25T11:44:42.834Z,1.20
2019-04-25T11:47:15.321Z,1.00
2019-04-25T11:49:43.705Z,1.13
2019-04-25T11:52:26.528Z,1.50
2019-04-25T11:54:45.755Z,1.00
2019-04-25T11:57:13.938Z,1.30
2019-04-25T11:59:47.932Z,1.03
2019-04-25T12:02:14.815Z,0.90
2019-04-25T12:04:45.502Z,1.20
2019-04-25T12:07:14.310Z,1.40
2019-04-25T12:09:45.468Z,3.00
2019-04-25T12:12:14.506Z,1.13
2019-04-25T12:14:44.166Z,1.10
2019-04-25T12:17:12.701Z,1.00
2019-04-25T12:19:40.743Z,1.10
2019-04-25T12:22:10.443Z,1.43
2019-04-25T12:24:38.722Z,1.00
2019-04-25T12:27:07.816Z,1.23
2019-04-25T12:29:38.923Z,1.00
2019-04-25T12:32:09.258Z,0.90
2019-04-25T12:34:37.380Z,1.10
2019-04-25T12:37:05.445Z,1.60
2019-04-25T12:39:34.165Z,0.80
2019-04-25T12:42:04.295Z,5.50
2019-04-25T12:44:47.328Z,0.97
2019-04-25T12:47:18.905Z,0.80
2019-04-25T12:49:46.958Z,5.60
2019-04-25T12:52:15.080Z,5.90
2019-04-25T12:54:44.086Z,1.87
2019-04-25T12:57:15.715Z,0.93
2019-04-25T12:59:46.198Z,0.60
2019-04-25T13:02:15.007Z,0.97
2019-04-25T13:04:44.330Z,0.90
2019-04-25T13:07:13.703Z,1.10
2019-04-25T13:09:52.271Z,0.90
2019-04-25T13:12:20.112Z,1.53
2019-04-25T13:14:48.153Z,0.90
2019-04-25T13:17:16.466Z,0.80
2019-04-25T13:19:48.810Z,1.17
2019-04-25T13:22:17.238Z,1.03
2019-04-25T13:24:45.356Z,0.90
2019-04-25T13:27:24.807Z,0.77
2019-04-25T13:30:11.009Z,0.73
2019-04-25T13:33:13.303Z,0.80
2019-04-25T13:35:56.215Z,1.00
2019-04-25T13:38:27.041Z,1.00
2019-04-25T13:41:02.157Z,0.70
2019-04-25T13:43:31.799Z,0.70
2019-04-25T13:46:00.641Z,2.20
2019-04-25T13:48:29.416Z,0.90
2019-04-25T13:50:58.642Z,1.00
2019-04-25T13:53:27.371Z,2.00
2019-04-25T13:55:55.899Z,0.90
2019-04-25T13:58:24.566Z,0.90
2019-04-25T14:00:53.721Z,0.87
2019-04-25T14:03:22.911Z,0.70
2019-04-25T14:05:51.103Z,1.10
2019-04-25T14:08:20.973Z,1.03
2019-04-25T14:10:49.012Z,0.87
2019-04-25T14:13:17.202Z,1.00
2019-04-25T14:15:53.499Z,0.80
2019-04-25T14:18:47.330Z,0.93
2019-04-25T14:21:17.213Z,0.87
2019-04-25T14:23:45.383Z,1.03
2019-04-25T14:26:13.792Z,0.80
2019-04-25T14:28:41.840Z,0.70
2019-04-25T14:31:13.137Z,0.90
2019-04-25T14:33:42.368Z,0.87
2019-04-25T14:36:10.653Z,1.00
2019-04-25T14:38:38.862Z,1.33
2019-04-25T14:41:07.776Z,0.70
2019-04-25T14:43:35.989Z,0.97
2019-04-25T14:46:04.273Z,1.00
2019-04-25T14:48:34.604Z,0.80
2019-04-25T14:51:03.026Z,0.80
2019-04-25T14:53:33.555Z,0.67
2019-04-25T14:56:25.965Z,0.93
2019-04-25T14:58:54.960Z,0.80
2019-04-25T15:01:25.986Z,1.00
2019-04-25T15:03:54.099Z,1.20
2019-04-25T15:06:21.999Z,1.20
2019-04-25T15:08:50.306Z,0.90
2019-04-25T15:11:18.381Z,0.80
2019-04-25T15:13:46.857Z,0.83
2019-04-25T15:16:14.979Z,0.80
2019-04-25T15:18:46.930Z,1.00
2019-04-25T15:21:18.624Z,0.80
2019-04-25T15:23:59.609Z,0.80
2019-04-25T15:26:20.158Z,0.80
2019-04-25T15:28:49.700Z,0.90
2019-04-25T15:31:25.564Z,1.00
2019-04-25T15:33:53.880Z,1.10
2019-04-25T15:36:40.246Z,0.80
2019-04-25T15:39:40.429Z,0.80
2019-04-25T15:42:29.401Z,0.80
2019-04-25T15:45:10.235Z,1.30
2019-04-25T15:47:39.719Z,1.20
2019-04-25T15:50:15.087Z,1.13
2019-04-25T15:52:44.978Z,1.30
2019-04-25T15:55:13.420Z,0.80
2019-04-25T15:57:41.587Z,0.80
2019-04-25T16:00:17.460Z,0.80
2019-04-25T16:02:46.415Z,0.70
2019-04-25T16:05:14.465Z,0.80
2019-04-25T16:07:45.170Z,0.90
2019-04-25T16:10:13.532Z,1.70
2019-04-25T16:12:42.149Z,3.40
2019-04-25T16:15:11.814Z,0.90
2019-04-25T16:17:40.801Z,1.67
2019-04-25T16:20:09.200Z,0.90
2019-04-25T16:22:39.261Z,1.00
2019-04-25T16:25:10.797Z,1.23
2019-04-25T16:27:41.733Z,1.30
2019-04-25T16:30:10.445Z,0.90
2019-04-25T16:32:38.629Z,1.93
2019-04-25T16:35:06.738Z,0.90
2019-04-25T16:37:34.891Z,0.70
2019-04-25T16:40:03.099Z,0.90
2019-04-25T16:42:32.251Z,1.07
2019-04-25T16:45:00.533Z,0.80
2019-04-25T16:47:30.847Z,0.90
2019-04-25T16:50:01.021Z,0.90
2019-04-25T16:52:30.407Z,1.40
2019-04-25T16:54:58.641Z,1.10
2019-04-25T16:57:26.844Z,1.20
2019-04-25T16:59:55.968Z,1.23
2019-04-25T17:02:35.236Z,1.07
2019-04-25T17:04:59.771Z,1.57
2019-04-25T17:07:30.323Z,1.10
2019-04-25T17:09:58.500Z,1.10
2019-04-25T17:12:27.126Z,0.97
2019-04-25T17:15:01.972Z,1.03
2019-04-25T17:17:54.102Z,1.10
2019-04-25T17:20:24.764Z,1.00
2019-04-25T17:22:52.914Z,2.30
2019-04-25T17:25:23.587Z,1.30
2019-04-25T17:27:51.637Z,1.00
2019-04-25T17:30:20.417Z,1.27
2019-04-25T17:33:05.187Z,1.13
2019-04-25T17:36:08.917Z,2.53
2019-04-25T17:38:50.351Z,1.80
2019-04-25T17:41:18.497Z,1.00
2019-04-25T17:43:46.586Z,1.10
2019-04-25T17:46:17.412Z,1.00
2019-04-25T17:48:45.480Z,1.00
2019-04-25T17:51:14.894Z,1.03
2019-04-25T17:53:43.321Z,1.00
2019-04-25T17:56:11.953Z,0.90
2019-04-25T17:58:40.084Z,0.90
2019-04-25T18:01:11.548Z,1.00
2019-04-25T18:03:39.905Z,1.70
2019-04-25T18:06:08.044Z,1.33
2019-04-25T18:08:36.084Z,1.53
2019-04-25T18:11:05.713Z,1.40
2019-04-25T18:13:37.586Z,2.10
2019-04-25T18:16:34.691Z,1.83
2019-04-25T18:19:13.495Z,2.10
2019-04-25T18:21:42.795Z,1.77
2019-04-25T18:24:58.076Z,1.47
2019-04-25T18:27:29.154Z,2.00
2019-04-25T18:29:57.242Z,1.50
2019-04-25T18:32:27.837Z,1.40
2019-04-25T18:35:07.106Z,1.53
2019-04-25T18:38:07.011Z,1.47
2019-04-25T18:41:03.569Z,1.80
2019-04-25T18:43:44.820Z,1.50
2019-04-25T18:46:19.086Z,2.00
2019-04-25T18:48:47.195Z,1.43
2019-04-25T18:51:15.385Z,1.50
2019-04-25T18:54:07.020Z,1.57
2019-04-25T18:56:54.348Z,1.20
2019-04-25T18:59:42.144Z,1.17
2019-04-25T19:02:32.260Z,1.00
2019-04-25T19:05:28.969Z,0.87
2019-04-25T19:08:05.151Z,1.20
2019-04-25T19:10:33.178Z,1.17
2019-04-25T19:13:12.031Z,1.60
2019-04-25T19:15:31.451Z,1.07
2019-04-25T19:17:59.798Z,0.90
2019-04-25T19:20:28.255Z,0.87
2019-04-25T19:22:56.527Z,1.00
2019-04-25T19:25:24.715Z,1.00
2019-04-25T19:27:52.877Z,1.30
2019-04-25T19:30:21.272Z,0.80
2019-04-25T19:32:49.642Z,0.73
2019-04-25T19:35:18.761Z,0.70
2019-04-25T19:37:47.048Z,0.70
2019-04-25T19:40:39.617Z,0.73
2019-04-25T19:43:16.695Z,1.00
2019-04-25T19:45:44.887Z,1.30
2019-04-25T19:48:13.075Z,0.83
2019-04-25T19:50:41.667Z,0.67
2019-04-25T19:53:10.521Z,0.77
2019-04-25T19:55:38.711Z,0.80
2019-04-25T19:58:06.831Z,1.07
2019-04-25T20:00:37.017Z,0.70
2019-04-25T20:03:16.645Z,0.63
2019-04-25T20:06:06.423Z,0.60
2019-04-25T20:09:10.691Z,0.73
2019-04-25T20:11:44.331Z,0.80
2019-04-25T20:14:14.220Z,0.60
2019-04-25T20:16:46.100Z,0.83
2019-04-25T20:19:14.448Z,0.67
2019-04-25T20:21:43.611Z,0.80
2019-04-25T20:24:13.055Z,0.80
2019-04-25T20:26:41.271Z,0.70
2019-04-25T20:29:09.444Z,0.70
2019-04-25T20:31:37.609Z,0.80
2019-04-25T20:34:06.350Z,0.60
2019-04-25T20:36:35.568Z,0.80
2019-04-25T20:39:06.218Z,0.70
2019-04-25T20:41:37.828Z,0.67
2019-04-25T20:44:05.992Z,0.90
2019-04-25T20:46:34.231Z,0.70
2019-04-25T20:49:02.256Z,0.90
2019-04-25T20:51:30.400Z,0.80
2019-04-25T20:53:59.014Z,0.80
2019-04-25T20:56:27.434Z,0.80
2019-04-25T20:58:55.646Z,0.70
2019-04-25T21:01:24.083Z,0.60
2019-04-25T21:03:54.085Z,0.70
2019-04-25T21:06:27.272Z,0.60
2019-04-25T21:08:55.510Z,0.60
2019-04-25T21:11:24.458Z,0.60
2019-04-25T21:14:11.205Z,0.77
2019-04-25T21:17:01.162Z,0.77
2019-04-25T21:19:31.357Z,0.80
2019-04-25T21:21:59.430Z,0.80
2019-04-25T21:24:27.576Z,0.60
2019-04-25T21:26:56.809Z,0.73
2019-04-25T21:29:25.089Z,0.70
2019-04-25T21:31:54.651Z,0.50
2019-04-25T21:34:26.512Z,0.60
2019-04-25T21:36:53.332Z,0.70
2019-04-25T21:39:50.068Z,0.60
2019-04-25T21:42:26.504Z,0.60
2019-04-25T21:44:56.062Z,0.60
2019-04-25T21:47:25.196Z,0.70
2019-04-25T21:49:54.327Z,0.77
2019-04-25T21:52:22.868Z,1.33
2019-04-25T21:54:56.547Z,1.00
2019-04-25T21:57:26.366Z,0.80
2019-04-25T22:00:03.218Z,0.60
2019-04-25T22:02:24.778Z,0.90
2019-04-25T22:04:54.166Z,0.60
2019-04-25T22:07:23.884Z,0.70
2019-04-25T22:09:52.680Z,0.70
2019-04-25T22:12:21.410Z,1.10
2019-04-25T22:14:49.483Z,0.70
2019-04-25T22:17:17.817Z,0.73
2019-04-25T22:19:46.031Z,0.60
2019-04-25T22:22:16.628Z,0.90
2019-04-25T22:24:44.955Z,0.80
2019-04-25T22:27:20.857Z,0.80
2019-04-25T22:29:57.005Z,0.70
2019-04-25T22:32:33.069Z,0.77
2019-04-25T22:35:16.507Z,0.60
2019-04-25T22:37:44.503Z,0.70
2019-04-25T22:40:12.628Z,0.80
2019-04-25T22:42:40.631Z,1.00
2019-04-25T22:45:08.701Z,0.80
2019-04-25T22:47:36.629Z,0.80
2019-04-25T22:50:04.707Z,0.90
2019-04-25T22:52:33.159Z,0.93
2019-04-25T22:55:02.161Z,1.00
2019-04-25T22:57:30.517Z,0.80
2019-04-25T22:59:58.473Z,0.97
2019-04-25T23:02:41.566Z,0.90
2019-04-25T23:05:16.549Z,0.97
2019-04-25T23:07:45.512Z,0.83
2019-04-25T23:10:14.165Z,0.90
2019-04-25T23:12:42.413Z,1.00
2019-04-25T23:15:11.035Z,1.00
2019-04-25T23:17:39.036Z,0.90
2019-04-25T23:20:08.138Z,0.90
2019-04-25T23:22:36.052Z,0.93
2019-04-25T23:25:10.130Z,0.97
2019-04-25T23:28:00.438Z,0.83
2019-04-25T23:30:36.832Z,0.90
2019-04-25T23:33:06.744Z,1.20
2019-04-25T23:35:34.940Z,0.93
2019-04-25T23:38:03.446Z,0.90
2019-04-25T23:40:32.717Z,0.90
2019-04-25T23:43:01.709Z,1.00
2019-04-25T23:45:29.720Z,0.80
2019-04-25T23:47:57.857Z,0.90
2019-04-25T23:50:26.864Z,0.82
2019-04-25T23:52:55.421Z,0.90
2019-04-25T23:55:23.610Z,1.10
2019-04-25T23:57:51.557Z,1.52
